Time;durP1;ratioP1;P1;durP2;ratioP2;P2;SDS_P1;SDS_P2;PMS_P1;PMS_P2;Temp;Humidity;BMP_temperature;BMP_pressure;BME280_temperature;BME280_humidity;BME280_pressure;Samples;Min_cycle;Max_cycle;Signal;HPM_P1;HPM_P2
2021/06/25 00:40:03;;;;;;;11.07;8.50;;;;;;;23.12;95.62;100417.88;20757213;27;8339558;-60
2021/06/25 00:50:06;;;;;;;11.80;8.70;;;;;;;23.14;96.25;100385.88;21024471;28;20266;-59
2021/06/25 01:30:06;;;;;;;11.63;9.10;;;;;;;22.53;98.11;100090.97;20563694;27;8318483;-62
2021/06/25 02:39:56;;;;;;;13.30;9.33;;;;;;;22.57;95.84;100319.94;20740762;27;8295202;-59
2021/06/25 03:00:04;;;;;;;15.40;11.47;;;;;;;22.60;96.30;100320.41;20746086;27;8330527;-60
2021/06/25 03:10:06;;;;;;;17.07;11.97;;;;;;;22.91;97.28;100349.59;21036649;28;20237;-61
2021/06/25 03:20:07;;;;;;;17.53;11.80;;;;;;;22.88;100.00;100358.09;21043894;28;20245;-60
2021/06/25 03:30:09;;;;;;;18.43;13.10;;;;;;;23.82;100.00;100366.03;21026141;28;20277;-60
2021/06/25 03:40:11;;;;;;;17.37;12.57;;;;;;;25.59;100.00;100391.50;21000191;28;20219;-61
2021/06/25 03:50:13;;;;;;;18.83;12.80;;;;;;;26.16;100.00;100379.63;20972259;28;20227;-59
2021/06/25 04:00:16;;;;;;;19.43;13.00;;;;;;;25.97;100.00;100381.13;20948514;28;20215;-61
2021/06/25 04:10:16;;;;;;;18.70;12.57;;;;;;;25.44;99.47;100364.22;20899215;28;20235;-59
2021/06/25 04:20:17;;;;;;;22.00;13.83;;;;;;;24.80;97.01;100321.38;20899679;28;20223;-60
2021/06/25 04:30:18;;;;;;;40.30;24.93;;;;;;;24.47;96.85;100283.59;20884036;28;20706;-61
2021/06/25 04:40:19;;;;;;;45.07;26.53;;;;;;;24.51;99.09;100282.19;20901864;28;20220;-59
2021/06/25 04:50:19;;;;;;;58.53;33.20;;;;;;;24.64;100.00;100285.06;20877688;28;20238;-59
2021/06/25 05:00:21;;;;;;;60.97;33.50;;;;;;;25.13;100.00;100311.72;20900487;28;20477;-59
2021/06/25 05:10:22;;;;;;;55.57;35.13;;;;;;;24.77;96.63;100287.97;20879280;28;20224;-60
2021/06/25 05:20:24;;;;;;;85.67;42.53;;;;;;;25.18;100.00;100361.16;20942082;28;20227;-59
2021/06/25 05:30:24;;;;;;;69.67;38.90;;;;;;;25.49;99.04;100371.81;20967002;28;20234;-60
2021/06/25 05:40:26;;;;;;;66.20;38.40;;;;;;;25.63;98.57;100379.13;20968864;28;20226;-59
2021/06/25 05:50:26;;;;;;;68.20;39.37;;;;;;;25.39;97.32;100384.94;20971057;28;20233;-63
2021/06/25 06:00:27;;;;;;;53.20;40.43;;;;;;;24.36;97.50;100363.19;20957543;28;20222;-60
2021/06/25 06:10:27;;;;;;;59.80;42.27;;;;;;;24.80;98.66;100360.44;20976822;28;20566;-61
2021/06/25 06:20:28;;;;;;;68.13;45.57;;;;;;;25.63;99.87;100356.41;20936491;28;20230;-60
2021/06/25 06:40:48;;;;;;;51.57;36.90;;;;;;;27.01;95.32;100378.53;20945339;28;20849;-63
2021/06/25 06:50:49;;;;;;;68.30;45.77;;;;;;;26.48;93.28;100391.88;20974977;28;20303;-59
2021/06/25 07:00:49;;;;;;;75.27;50.17;;;;;;;26.92;96.29;100405.25;20986194;28;20314;-63
2021/06/25 07:10:50;;;;;;;74.30;49.13;;;;;;;27.22;96.77;100409.41;20986160;28;20306;-63
2021/06/25 07:20:51;;;;;;;78.37;49.57;;;;;;;26.80;97.14;100415.91;20985828;28;20301;-63
2021/06/25 07:30:51;;;;;;;66.27;46.40;;;;;;;27.07;95.84;100437.97;20967382;28;20227;-58
2021/06/25 07:40:52;;;;;;;64.33;49.03;;;;;;;26.38;93.71;100432.44;20991515;28;20233;-61
2021/06/25 07:50:52;;;;;;;61.67;51.93;;;;;;;25.58;95.15;100419.00;20999433;28;20330;-57
2021/06/25 08:00:53;;;;;;;52.80;45.97;;;;;;;25.89;96.03;100425.03;20999086;28;20230;-57
2021/06/25 08:10:53;;;;;;;47.00;41.73;;;;;;;26.42;93.13;100450.19;20998423;28;20223;-59
2021/06/25 08:20:54;;;;;;;43.83;39.43;;;;;;;26.66;89.00;100430.56;20997499;28;20622;-57
2021/06/25 08:30:54;;;;;;;47.30;37.93;;;;;;;26.95;92.63;100428.66;20997304;28;20710;-59
2021/06/25 08:40:59;;;;;;;43.70;38.47;;;;;;;27.54;91.41;100432.50;20978504;28;20452;-63
2021/06/25 08:50:59;;;;;;;41.50;37.05;;;;;;;27.75;92.39;100436.19;20995147;28;20341;-63
2021/06/25 09:01:00;;;;;;;37.30;33.65;;;;;;;28.81;87.95;100432.44;20987605;28;20249;-64
2021/06/25 09:11:02;;;;;;;33.22;30.02;;;;;;;27.40;83.57;100444.47;20972440;28;20231;-58
2021/06/25 09:21:18;;;;;;;36.00;32.30;;;;;;;26.53;84.68;100452.38;20993178;28;20767;-63
2021/06/25 09:31:22;;;;;;;35.87;31.90;;;;;;;26.21;90.88;100453.72;20992316;28;20223;-57
2021/06/25 09:41:29;;;;;;;45.53;36.90;;;;;;;25.52;91.06;100452.56;20991711;28;20239;-57
2021/06/25 09:51:31;;;;;;;42.03;35.07;;;;;;;25.93;93.18;100439.19;20990171;28;20234;-61
2021/06/25 10:01:38;;;;;;;39.00;34.90;;;;;;;27.15;94.35;100432.34;20989842;28;20306;-58
2021/06/25 10:11:39;;;;;;;36.75;33.10;;;;;;;28.05;86.42;100437.50;20989742;28;20245;-57
2021/06/25 10:21:40;;;;;;;35.35;31.67;;;;;;;27.78;78.66;100443.97;20989137;28;20215;-57
2021/06/25 10:31:40;;;;;;;31.67;28.63;;;;;;;26.99;77.91;100447.22;20987158;28;20303;-57
2021/06/25 10:41:57;;;;;;;34.07;31.00;;;;;;;26.85;75.17;100443.53;20988244;28;20459;-57
2021/06/25 10:52:08;;;;;;;29.60;27.00;;;;;;;28.07;73.57;100435.38;20985990;28;20234;-57
2021/06/25 11:02:09;;;;;;;30.48;27.73;;;;;;;28.63;71.78;100434.97;20987362;28;20540;-57
2021/06/25 11:12:21;;;;;;;29.63;27.00;;;;;;;28.98;71.84;100450.16;20987335;28;20311;-56
2021/06/25 11:23:01;;;;;;;31.30;28.52;;;;;;;28.97;64.82;100443.00;21002977;28;20222;-57
2021/06/25 11:33:39;;;;;;;31.10;28.30;;;;;;;28.29;64.70;100442.38;20978465;28;20230;-64
2021/06/25 11:43:40;;;;;;;30.80;27.80;;;;;;;28.08;68.72;100428.84;21001448;28;20756;-58
2021/06/25 11:53:48;;;;;;;31.73;28.88;;;;;;;28.73;66.65;100435.41;20998119;28;20253;-57
2021/06/25 12:03:48;;;;;;;29.77;27.13;;;;;;;28.17;69.16;100446.78;20999775;28;20230;-63
2021/06/25 12:14:00;;;;;;;30.10;27.30;;;;;;;28.19;66.77;100444.72;20999149;28;20687;-57
2021/06/25 12:24:01;;;;;;;27.73;25.37;;;;;;;27.93;70.42;100447.38;20996763;28;20372;-57
2021/06/25 12:34:10;;;;;;;29.73;27.03;;;;;;;28.15;65.81;100464.50;20996944;28;20309;-59
2021/06/25 12:44:11;;;;;;;26.00;23.60;;;;;;;27.85;71.16;100472.28;20996787;28;20227;-57
2021/06/25 12:54:12;;;;;;;23.43;21.13;;;;;;;26.84;69.22;100493.88;20993387;28;20231;-64
2021/06/25 13:04:26;;;;;;;23.13;21.00;;;;;;;26.19;69.98;100496.88;20994186;28;20273;-64
2021/06/25 13:14:47;;;;;;;26.67;24.13;;;;;;;25.81;69.50;100490.78;20993807;28;20226;-63
2021/06/25 13:25:07;;;;;;;22.13;20.03;;;;;;;25.80;70.29;100483.63;20992359;28;20761;-64
2021/06/25 13:35:08;;;;;;;22.57;20.67;;;;;;;25.58;69.71;100458.13;20975392;28;20254;-58
2021/06/25 13:45:23;;;;;;;27.13;24.43;;;;;;;25.96;67.58;100469.72;20963886;28;20243;-61
2021/06/25 13:55:26;;;;;;;32.03;29.03;;;;;;;26.08;69.73;100486.47;20963317;28;20644;-63
2021/06/25 14:05:27;;;;;;;34.43;31.20;;;;;;;26.02;69.08;100468.94;20961035;28;20226;-61
2021/06/25 14:15:47;;;;;;;31.67;28.67;;;;;;;26.67;67.03;100483.44;20962488;28;20306;-61
2021/06/25 14:25:48;;;;;;;24.73;22.37;;;;;;;27.05;66.18;100462.03;20969345;28;20586;-57
2021/06/25 14:35:51;;;;;;;18.47;16.80;;;;;;;27.66;65.25;100470.31;20985010;28;20225;-59
2021/06/25 14:45:51;;;;;;;14.93;13.73;;;;;;;27.70;64.04;100457.88;20987643;28;20230;-58
2021/06/25 14:55:52;;;;;;;14.53;13.03;;;;;;;27.98;62.64;100464.09;20983935;28;20564;-57
2021/06/25 15:05:53;;;;;;;14.40;12.80;;;;;;;28.06;63.26;100438.34;20916204;28;20261;-62
2021/06/25 15:15:53;;;;;;;12.77;11.70;;;;;;;28.24;60.92;100446.84;20877536;28;20716;-62
2021/06/25 15:25:54;;;;;;;12.07;10.97;;;;;;;28.99;61.34;100434.50;20878516;28;20706;-61
2021/06/25 15:35:54;;;;;;;11.63;10.63;;;;;;;28.92;59.78;100423.56;20877656;28;20231;-57
2021/06/25 15:45:55;;;;;;;12.50;11.40;;;;;;;28.49;60.74;100441.56;20876610;28;20301;-59
2021/06/25 15:55:57;;;;;;;12.47;11.37;;;;;;;28.44;60.95;100441.34;20891435;28;20228;-63
2021/06/25 16:05:58;;;;;;;11.50;10.50;;;;;;;28.46;60.76;100440.06;20905177;28;20753;-66
2021/06/25 16:15:58;;;;;;;10.27;9.27;;;;;;;28.92;61.23;100428.19;20893019;28;20228;-59
2021/06/25 16:25:59;;;;;;;10.27;9.37;;;;;;;28.92;60.75;100429.03;20892110;28;20581;-59
2021/06/25 16:36:00;;;;;;;9.70;8.93;;;;;;;28.82;61.69;100434.16;20890801;28;20216;-59
2021/06/25 16:46:01;;;;;;;10.20;9.40;;;;;;;28.59;60.37;100450.22;20887966;28;20230;-58
2021/06/25 16:56:07;;;;;;;9.40;8.50;;;;;;;28.39;60.20;100443.88;20894417;28;20230;-59
2021/06/25 17:06:08;;;;;;;10.17;9.27;;;;;;;28.30;60.64;100443.25;20904282;28;20223;-60
2021/06/25 17:16:08;;;;;;;9.27;8.57;;;;;;;28.05;60.78;100447.63;20908634;28;20761;-65
2021/06/25 17:26:09;;;;;;;9.13;8.33;;;;;;;27.56;61.10;100449.63;20910389;28;20269;-59
2021/06/25 17:36:10;;;;;;;8.60;7.90;;;;;;;28.08;61.84;100450.78;20909534;28;20588;-59
2021/06/25 17:46:10;;;;;;;7.83;7.17;;;;;;;28.24;60.04;100441.34;20908232;28;20246;-59
2021/06/25 17:56:11;;;;;;;8.20;7.40;;;;;;;28.51;59.89;100436.69;20906966;28;20236;-59
2021/06/25 18:06:11;;;;;;;7.93;7.17;;;;;;;28.60;59.75;100440.91;20907618;28;20863;-58
2021/06/25 18:16:12;;;;;;;7.97;7.37;;;;;;;27.48;61.18;100447.03;20906901;28;20705;-64
2021/06/25 18:26:12;;;;;;;8.70;7.80;;;;;;;26.21;63.92;100472.88;20905665;28;20644;-64
2021/06/25 18:36:16;;;;;;;8.60;7.80;;;;;;;25.52;67.17;100468.97;20868676;28;20235;-58
2021/06/25 18:46:18;;;;;;;8.70;7.80;;;;;;;25.40;68.51;100476.78;20886985;28;20216;-58
2021/06/25 18:56:19;;;;;;;10.20;9.30;;;;;;;25.21;70.54;100477.41;20865797;28;20258;-65
2021/06/25 19:06:20;;;;;;;8.87;8.07;;;;;;;24.94;71.30;100449.72;20887354;28;20235;-58
2021/06/25 19:16:20;;;;;;;9.37;8.57;;;;;;;24.80;71.96;100461.44;20886781;28;21051;-59
2021/06/25 19:26:21;;;;;;;7.30;6.70;;;;;;;24.30;72.61;100473.84;20961804;28;20583;-58
2021/06/25 19:36:22;;;;;;;5.50;5.10;;;;;;;23.80;73.48;100490.72;20967755;28;20793;-58
2021/06/25 19:46:23;;;;;;;5.70;5.20;;;;;;;23.46;74.22;100501.09;20968805;28;20233;-58
2021/06/25 19:56:31;;;;;;;5.90;5.37;;;;;;;23.03;76.81;100495.16;20984205;28;20260;-62
2021/06/25 20:06:38;;;;;;;5.47;5.00;;;;;;;22.76;77.68;100509.16;20965414;28;20229;-61
2021/06/25 20:16:39;;;;;;;5.63;5.23;;;;;;;22.58;79.06;100491.09;20987434;28;20300;-61
2021/06/25 20:26:39;;;;;;;5.70;5.27;;;;;;;22.48;80.82;100498.59;20945802;28;20216;-63
2021/06/25 20:36:40;;;;;;;6.93;5.73;;;;;;;22.64;81.08;100500.47;20986057;28;20219;-65
2021/06/25 20:46:40;;;;;;;6.40;5.90;;;;;;;22.72;81.44;100477.81;20966383;28;20295;-59
2021/06/25 20:56:41;;;;;;;6.10;5.60;;;;;;;22.77;80.94;100486.38;20974229;28;20265;-62
2021/06/25 21:16:49;;;;;;;7.27;6.33;;;;;;;22.78;80.76;100460.84;20511416;27;8518963;-61
2021/06/25 21:26:50;;;;;;;8.40;5.77;;;;;;;22.42;81.89;100473.97;20856726;28;20260;-57
2021/06/25 21:36:50;;;;;;;6.07;5.57;;;;;;;22.46;82.04;100497.91;20837960;28;20254;-60
2021/06/25 21:46:51;;;;;;;5.67;5.13;;;;;;;22.50;80.97;100499.28;20857007;28;20234;-64
2021/06/25 21:56:51;;;;;;;5.63;4.90;;;;;;;22.68;80.15;100522.75;20835363;28;20769;-63
2021/06/25 22:06:52;;;;;;;5.97;5.40;;;;;;;22.64;79.17;100533.97;20854895;28;20249;-57
2021/06/25 22:16:52;;;;;;;5.80;5.20;;;;;;;22.86;78.61;100531.59;20920952;28;20255;-61
2021/06/25 22:36:59;;;;;;;6.07;5.60;;;;;;;22.86;78.42;100509.81;20753157;27;8106904;-57
2021/06/25 22:46:59;;;;;;;5.30;4.90;;;;;;;22.81;78.71;100496.75;21031364;28;21116;-62
2021/06/25 22:57:00;;;;;;;5.27;4.87;;;;;;;22.72;79.68;100502.31;21046885;28;20306;-57
2021/06/25 23:07:00;;;;;;;6.03;5.57;;;;;;;22.64;80.85;100511.34;21011239;28;20225;-64
2021/06/25 23:17:02;;;;;;;6.50;6.00;;;;;;;22.58;81.43;100534.63;20961965;28;20639;-61
2021/06/25 23:27:03;;;;;;;6.20;5.70;;;;;;;22.53;80.81;100534.31;20949440;28;20265;-64
2021/06/25 23:37:03;;;;;;;6.60;6.07;;;;;;;22.38;81.35;100521.56;21044272;28;20573;-59
2021/06/25 23:47:04;;;;;;;7.43;6.73;;;;;;;22.26;83.22;100511.03;20975648;28;20241;-59
2021/06/25 23:57:05;;;;;;;8.37;7.60;;;;;;;22.06;84.52;100501.50;20980764;28;20311;-57
